createdAt,value
2022-09-02T00:00:06.527Z,17.91
2022-09-02T00:01:06.518Z,17.91
2022-09-02T00:02:06.660Z,17.91
2022-09-02T00:03:06.673Z,17.90
2022-09-02T00:04:06.507Z,17.90
2022-09-02T00:05:06.478Z,17.90
2022-09-02T00:06:06.458Z,17.87
2022-09-02T00:07:06.489Z,17.87
2022-09-02T00:08:06.449Z,17.86
2022-09-02T00:09:06.429Z,17.86
2022-09-02T00:10:06.439Z,17.83
2022-09-02T00:11:06.451Z,17.84
2022-09-02T00:12:06.388Z,17.83
2022-09-02T00:13:06.389Z,17.79
2022-09-02T00:14:06.409Z,17.78
2022-09-02T00:15:06.407Z,17.76
2022-09-02T00:16:06.495Z,17.75
2022-09-02T00:17:06.370Z,17.75
2022-09-02T00:18:06.361Z,17.75
2022-09-02T00:19:06.324Z,17.75
2022-09-02T00:20:06.327Z,17.73
2022-09-02T00:21:06.329Z,17.75
2022-09-02T00:22:06.310Z,17.73
2022-09-02T00:23:06.281Z,17.73
2022-09-02T00:24:06.269Z,17.72
2022-09-02T00:25:06.260Z,17.72
2022-09-02T00:26:06.282Z,17.72
2022-09-02T00:27:06.236Z,17.71
2022-09-02T00:28:06.228Z,17.68
2022-09-02T00:29:06.220Z,17.66
2022-09-02T00:30:06.199Z,17.65
2022-09-02T00:31:06.191Z,17.63
2022-09-02T00:32:06.245Z,17.59
2022-09-02T00:33:06.191Z,17.62
2022-09-02T00:34:06.150Z,17.59
2022-09-02T00:35:06.149Z,17.59
2022-09-02T00:36:06.129Z,17.56
2022-09-02T00:37:06.128Z,17.57
2022-09-02T00:38:06.159Z,17.56
2022-09-02T00:39:06.139Z,17.56
2022-09-02T00:40:06.125Z,17.56
2022-09-02T00:41:06.089Z,17.54
2022-09-02T00:42:06.070Z,17.54
2022-09-02T00:43:06.066Z,17.54
2022-09-02T00:44:06.076Z,17.53
2022-09-02T00:45:06.040Z,17.53
2022-09-02T00:46:06.129Z,17.54
2022-09-02T00:47:06.019Z,17.53
2022-09-02T00:48:06.008Z,17.52
2022-09-02T00:49:06.068Z,17.50
2022-09-02T00:50:05.987Z,17.46
2022-09-02T00:51:06.786Z,17.47
2022-09-02T00:52:05.979Z,17.46
2022-09-02T00:53:05.989Z,17.45
2022-09-02T00:54:05.940Z,17.45
2022-09-02T00:55:05.962Z,17.41
2022-09-02T00:56:05.927Z,17.43
2022-09-02T00:57:05.911Z,17.41
2022-09-02T00:58:09.565Z,17.39
2022-09-02T00:59:05.890Z,17.39
2022-09-02T01:00:05.899Z,17.39
2022-09-02T01:01:05.916Z,17.38
2022-09-02T01:02:05.947Z,17.37
2022-09-02T01:03:05.850Z,17.37
2022-09-02T01:04:05.861Z,17.34
2022-09-02T01:05:05.831Z,17.35
2022-09-02T01:06:05.840Z,17.34
2022-09-02T01:07:05.830Z,17.35
2022-09-02T01:08:05.820Z,17.35
2022-09-02T01:09:05.787Z,17.34
2022-09-02T01:10:05.779Z,17.32
2022-09-02T01:11:06.297Z,17.31
2022-09-02T01:12:05.751Z,17.28
2022-09-02T01:13:05.770Z,17.27
2022-09-02T01:14:05.730Z,17.28
2022-09-02T01:15:05.739Z,17.27
2022-09-02T01:16:05.803Z,17.27
2022-09-02T01:17:05.700Z,17.25
2022-09-02T01:18:05.680Z,17.25
2022-09-02T01:19:05.683Z,17.25
2022-09-02T01:20:05.739Z,17.24
2022-09-02T01:21:05.669Z,17.22
2022-09-02T01:22:05.672Z,17.20
2022-09-02T01:23:05.662Z,17.19
2022-09-02T01:24:05.620Z,17.17
2022-09-02T01:25:05.659Z,17.16
2022-09-02T01:26:05.612Z,17.14
2022-09-02T01:27:05.591Z,17.13
2022-09-02T01:28:05.580Z,17.12
2022-09-02T01:29:05.610Z,17.12
2022-09-02T01:30:05.581Z,17.09
2022-09-02T01:31:05.600Z,17.09
2022-09-02T01:32:05.547Z,17.06
2022-09-02T01:33:05.530Z,17.01
2022-09-02T01:34:05.512Z,16.99
2022-09-02T01:35:05.500Z,16.98
2022-09-02T01:36:05.502Z,16.97
2022-09-02T01:37:05.515Z,16.94
2022-09-02T01:38:05.501Z,16.94
2022-09-02T01:39:05.460Z,16.92
2022-09-02T01:40:05.482Z,16.90
2022-09-02T01:41:05.440Z,16.91
2022-09-02T01:42:05.428Z,16.90
2022-09-02T01:43:05.451Z,16.88
2022-09-02T01:44:05.441Z,16.88
2022-09-02T01:45:05.412Z,16.84
2022-09-02T01:46:05.381Z,16.83
2022-09-02T01:47:05.449Z,16.83
2022-09-02T01:48:05.363Z,16.83
2022-09-02T01:49:05.352Z,16.82
2022-09-02T01:50:05.368Z,16.82
2022-09-02T01:51:05.404Z,16.82
2022-09-02T01:52:05.320Z,16.80
2022-09-02T01:53:05.319Z,16.79
2022-09-02T01:54:05.317Z,16.79
2022-09-02T01:55:05.291Z,16.79
2022-09-02T01:56:05.280Z,16.79
2022-09-02T01:57:05.510Z,16.79
2022-09-02T01:58:05.262Z,16.80
2022-09-02T01:59:05.422Z,16.80
2022-09-02T02:00:05.400Z,16.80
2022-09-02T02:01:05.577Z,16.79
2022-09-02T02:02:05.271Z,16.77
2022-09-02T02:03:05.210Z,16.79
2022-09-02T02:04:05.309Z,16.77
2022-09-02T02:05:05.181Z,16.77
2022-09-02T02:06:05.170Z,16.79
2022-09-02T02:07:05.491Z,16.79
2022-09-02T02:08:05.170Z,16.79
2022-09-02T02:09:05.142Z,16.79
2022-09-02T02:10:05.137Z,16.79
2022-09-02T02:11:05.122Z,16.79
2022-09-02T02:12:05.101Z,16.79
2022-09-02T02:13:05.359Z,16.77
2022-09-02T02:14:05.101Z,16.77
2022-09-02T02:15:05.101Z,16.76
2022-09-02T02:16:05.127Z,16.74
2022-09-02T02:17:05.051Z,16.74
2022-09-02T02:18:05.089Z,16.76
2022-09-02T02:19:05.032Z,16.77
2022-09-02T02:20:05.031Z,16.76
2022-09-02T02:21:05.021Z,16.76
2022-09-02T02:22:05.002Z,16.76
2022-09-02T02:23:04.990Z,16.76
2022-09-02T02:24:05.038Z,16.77
2022-09-02T02:25:04.972Z,16.74
2022-09-02T02:26:04.964Z,16.76
2022-09-02T02:27:04.953Z,16.74
2022-09-02T02:28:05.556Z,16.74
2022-09-02T02:29:04.921Z,16.73
2022-09-02T02:30:04.950Z,16.73
2022-09-02T02:31:04.937Z,16.72
2022-09-02T02:32:04.901Z,16.70
2022-09-02T02:33:04.882Z,16.70
2022-09-02T02:34:04.872Z,16.70
2022-09-02T02:35:04.893Z,16.65
2022-09-02T02:36:04.854Z,16.65
2022-09-02T02:37:04.841Z,16.64
2022-09-02T02:38:04.893Z,16.64
2022-09-02T02:39:04.815Z,16.64
2022-09-02T02:40:04.836Z,16.62
2022-09-02T02:41:04.834Z,16.62
2022-09-02T02:42:04.782Z,16.62
2022-09-02T02:43:04.773Z,16.62
2022-09-02T02:44:04.762Z,16.61
2022-09-02T02:45:04.792Z,16.59
2022-09-02T02:46:04.756Z,16.58
2022-09-02T02:47:04.721Z,16.57
2022-09-02T02:48:04.722Z,16.57
2022-09-02T02:49:04.702Z,16.55
2022-09-02T02:50:04.712Z,16.57
2022-09-02T02:51:04.712Z,16.57
2022-09-02T02:52:04.736Z,16.57
2022-09-02T02:53:04.673Z,16.57
2022-09-02T02:54:04.661Z,16.55
2022-09-02T02:55:04.642Z,16.55
2022-09-02T02:56:04.632Z,16.54
2022-09-02T02:57:04.672Z,16.52
2022-09-02T02:58:04.613Z,16.51
2022-09-02T02:59:04.605Z,16.47
2022-09-02T03:00:04.602Z,16.46
2022-09-02T03:01:04.602Z,16.44
2022-09-02T03:02:04.666Z,16.44
2022-09-02T03:03:04.667Z,16.43
2022-09-02T03:04:04.551Z,16.43
2022-09-02T03:05:04.535Z,16.42
2022-09-02T03:06:04.529Z,16.40
2022-09-02T03:07:04.513Z,16.43
2022-09-02T03:08:04.504Z,16.43
2022-09-02T03:09:04.523Z,16.44
2022-09-02T03:10:04.481Z,16.44
2022-09-02T03:11:04.472Z,16.44
2022-09-02T03:12:04.473Z,16.44
2022-09-02T03:13:04.474Z,16.44
2022-09-02T03:14:04.442Z,16.46
2022-09-02T03:15:04.431Z,16.44
2022-09-02T03:16:04.498Z,16.44
2022-09-02T03:17:04.412Z,16.44
2022-09-02T03:18:04.433Z,16.44
2022-09-02T03:19:04.393Z,16.43
2022-09-02T03:20:04.380Z,16.42
2022-09-02T03:21:04.363Z,16.39
2022-09-02T03:22:04.352Z,16.39
2022-09-02T03:23:04.345Z,16.36
2022-09-02T03:24:04.368Z,16.34
2022-09-02T03:25:05.602Z,16.33
2022-09-02T03:26:04.312Z,16.33
2022-09-02T03:27:04.303Z,16.33
2022-09-02T03:28:04.292Z,16.33
2022-09-02T03:29:04.274Z,16.34
2022-09-02T03:30:04.293Z,16.33
2022-09-02T03:31:04.322Z,16.33
2022-09-02T03:32:04.250Z,16.33
2022-09-02T03:33:04.517Z,16.32
2022-09-02T03:34:04.266Z,16.32
2022-09-02T03:35:04.243Z,16.28
2022-09-02T03:36:04.209Z,16.28
2022-09-02T03:37:04.193Z,16.28
2022-09-02T03:38:04.186Z,16.26
2022-09-02T03:39:04.172Z,16.26
2022-09-02T03:40:04.312Z,16.25
2022-09-02T03:41:04.183Z,16.25
2022-09-02T03:42:05.703Z,16.25
2022-09-02T03:43:04.132Z,16.25
2022-09-02T03:44:04.123Z,16.24
2022-09-02T03:45:04.105Z,16.22
2022-09-02T03:46:04.188Z,16.22
2022-09-02T03:47:04.142Z,16.22
2022-09-02T03:48:04.073Z,16.21
2022-09-02T03:49:04.062Z,16.21
2022-09-02T03:50:04.060Z,16.21
2022-09-02T03:51:04.043Z,16.21
2022-09-02T03:52:04.033Z,16.18
2022-09-02T03:53:04.073Z,16.21
2022-09-02T03:54:04.013Z,16.18
2022-09-02T03:55:04.003Z,16.16
2022-09-02T03:56:03.992Z,16.14
2022-09-02T03:57:03.978Z,16.14
2022-09-02T03:58:08.415Z,16.14
2022-09-02T03:59:03.992Z,16.17
2022-09-02T04:00:03.950Z,16.16
2022-09-02T04:01:03.934Z,16.17
2022-09-02T04:02:04.120Z,16.18
2022-09-02T04:03:03.980Z,16.16
2022-09-02T04:04:03.933Z,16.16
2022-09-02T04:05:03.903Z,16.17
2022-09-02T04:06:03.893Z,16.16
2022-09-02T04:07:03.880Z,16.16
2022-09-02T04:08:03.883Z,16.16
2022-09-02T04:09:03.894Z,16.14
2022-09-02T04:10:03.853Z,16.14
2022-09-02T04:11:03.832Z,16.13
2022-09-02T04:12:03.832Z,16.16
2022-09-02T04:13:03.816Z,16.16
2022-09-02T04:14:03.793Z,16.16
2022-09-02T04:15:03.824Z,16.14
2022-09-02T04:16:03.844Z,16.16
2022-09-02T04:17:03.762Z,16.16
2022-09-02T04:18:03.763Z,16.16
2022-09-02T04:19:03.745Z,16.14
2022-09-02T04:20:03.742Z,16.16
2022-09-02T04:21:03.722Z,16.16
2022-09-02T04:22:03.744Z,16.16
2022-09-02T04:23:03.703Z,16.17
2022-09-02T04:24:03.733Z,16.17
2022-09-02T04:25:03.732Z,16.17
2022-09-02T04:26:03.674Z,16.18
2022-09-02T04:27:04.533Z,16.18
2022-09-02T04:28:03.653Z,16.21
2022-09-02T04:29:03.638Z,16.21
2022-09-02T04:30:03.632Z,16.22
2022-09-02T04:31:03.650Z,16.22
2022-09-02T04:32:03.632Z,16.22
2022-09-02T04:33:03.623Z,16.21
2022-09-02T04:34:03.585Z,16.18
2022-09-02T04:35:03.574Z,16.18
2022-09-02T04:36:03.614Z,16.18
2022-09-02T04:37:03.603Z,16.18
2022-09-02T04:38:03.547Z,16.18
2022-09-02T04:39:03.534Z,16.21
2022-09-02T04:40:03.525Z,16.21
2022-09-02T04:41:03.513Z,16.18
2022-09-02T04:42:03.503Z,16.21
2022-09-02T04:43:03.513Z,16.22
2022-09-02T04:44:03.481Z,16.21
2022-09-02T04:45:03.511Z,16.21
2022-09-02T04:46:03.551Z,16.21
2022-09-02T04:47:03.476Z,16.22
2022-09-02T04:48:03.442Z,16.22
2022-09-02T04:49:03.423Z,16.21
2022-09-02T04:50:03.462Z,16.21
2022-09-02T04:51:03.403Z,16.22
2022-09-02T04:52:03.424Z,16.22
2022-09-02T04:53:03.383Z,16.22
2022-09-02T04:54:03.406Z,16.25
2022-09-02T04:55:03.353Z,16.24
2022-09-02T04:56:03.353Z,16.24
2022-09-02T04:57:03.343Z,16.24
2022-09-02T04:58:03.345Z,16.24
2022-09-02T04:59:03.324Z,16.22
2022-09-02T05:00:03.393Z,16.22
2022-09-02T05:01:03.355Z,16.22
2022-09-02T05:02:03.388Z,16.24
2022-09-02T05:03:03.272Z,16.25
2022-09-02T05:04:03.272Z,16.22
2022-09-02T05:05:03.272Z,16.25
2022-09-02T05:06:03.243Z,16.25
2022-09-02T05:07:03.234Z,16.24
2022-09-02T05:08:03.222Z,16.24
2022-09-02T05:09:03.243Z,16.24
2022-09-02T05:10:03.195Z,16.26
2022-09-02T05:11:03.182Z,16.25
2022-09-02T05:12:03.178Z,16.32
2022-09-02T05:13:03.164Z,16.32
2022-09-02T05:14:03.183Z,16.33
2022-09-02T05:15:03.148Z,16.37
2022-09-02T05:16:03.186Z,16.40
2022-09-02T05:17:10.372Z,16.44
2022-09-02T05:18:03.802Z,16.49
2022-09-02T05:19:03.104Z,16.54
2022-09-02T05:20:03.095Z,16.57
2022-09-02T05:21:03.105Z,16.61
2022-09-02T05:22:03.065Z,16.64
2022-09-02T05:23:03.085Z,16.67
2022-09-02T05:24:03.045Z,16.69
2022-09-02T05:25:03.027Z,16.77
2022-09-02T05:26:03.026Z,16.79
2022-09-02T05:27:03.015Z,16.80
2022-09-02T05:28:03.016Z,16.82
2022-09-02T05:29:03.015Z,16.82
2022-09-02T05:30:03.033Z,16.84
2022-09-02T05:31:03.040Z,16.90
2022-09-02T05:32:02.966Z,16.94
2022-09-02T05:33:02.957Z,17.04
2022-09-02T05:34:02.975Z,17.13
2022-09-02T05:35:02.925Z,17.16
2022-09-02T05:36:02.944Z,17.19
2022-09-02T05:37:02.913Z,17.22
2022-09-02T05:38:02.905Z,17.22
2022-09-02T05:39:02.916Z,17.24
2022-09-02T05:40:02.893Z,17.22
2022-09-02T05:41:02.865Z,17.27
2022-09-02T05:42:02.865Z,17.35
2022-09-02T05:43:02.865Z,17.41
2022-09-02T05:44:03.697Z,17.43
2022-09-02T05:45:02.826Z,17.46
2022-09-02T05:46:02.848Z,17.47
2022-09-02T05:47:02.795Z,17.52
2022-09-02T05:48:02.796Z,17.50
2022-09-02T05:49:02.817Z,17.45
2022-09-02T05:50:03.120Z,17.46
2022-09-02T05:51:02.756Z,17.49
2022-09-02T05:52:02.745Z,17.47
2022-09-02T05:53:02.802Z,17.47
2022-09-02T05:54:02.726Z,17.49
2022-09-02T05:55:02.706Z,17.45
2022-09-02T05:56:02.705Z,17.45
2022-09-02T05:57:02.717Z,17.41
2022-09-02T05:58:02.676Z,17.41
2022-09-02T05:59:02.715Z,17.37
2022-09-02T06:00:02.657Z,17.31
2022-09-02T06:01:02.636Z,17.34
2022-09-02T06:02:02.705Z,17.38
2022-09-02T06:03:02.711Z,17.41
2022-09-02T06:04:02.633Z,17.46
2022-09-02T06:05:02.616Z,17.46
2022-09-02T06:06:06.602Z,17.49
2022-09-02T06:07:02.576Z,17.52
2022-09-02T06:08:02.586Z,17.52
2022-09-02T06:09:02.586Z,17.50
2022-09-02T06:10:02.548Z,17.50
2022-09-02T06:11:02.588Z,17.50
2022-09-02T06:12:02.584Z,17.52
2022-09-02T06:13:02.514Z,17.56
2022-09-02T06:14:02.517Z,17.68
2022-09-02T06:15:02.500Z,17.73
2022-09-02T06:16:02.533Z,17.84
2022-09-02T06:17:02.481Z,17.87
2022-09-02T06:18:02.505Z,17.86
2022-09-02T06:19:02.466Z,17.83
2022-09-02T06:20:02.447Z,17.78
2022-09-02T06:21:02.438Z,17.76
2022-09-02T06:22:02.466Z,17.73
2022-09-02T06:23:02.406Z,17.75
2022-09-02T06:24:02.408Z,17.72
2022-09-02T06:25:02.380Z,17.69
2022-09-02T06:26:02.376Z,17.68
2022-09-02T06:27:02.362Z,17.65
2022-09-02T06:28:06.921Z,17.59
2022-09-02T06:29:02.345Z,17.54
2022-09-02T06:30:02.343Z,17.54
2022-09-02T06:31:02.421Z,17.52
2022-09-02T06:32:02.336Z,17.52
2022-09-02T06:33:02.297Z,17.50
2022-09-02T06:34:02.299Z,17.52
2022-09-02T06:35:02.307Z,17.52
2022-09-02T06:36:02.283Z,17.52
2022-09-02T06:37:02.268Z,17.50
2022-09-02T06:38:02.278Z,17.50
2022-09-02T06:39:02.226Z,17.46
2022-09-02T06:40:02.236Z,17.41
2022-09-02T06:41:02.225Z,17.41
2022-09-02T06:42:02.226Z,17.43
2022-09-02T06:43:02.196Z,17.45
2022-09-02T06:44:02.184Z,17.47
2022-09-02T06:45:02.167Z,17.49
2022-09-02T06:46:02.183Z,17.46
2022-09-02T06:47:02.187Z,17.47
2022-09-02T06:48:02.167Z,17.49
2022-09-02T06:49:02.151Z,17.50
2022-09-02T06:50:02.116Z,17.50
2022-09-02T06:51:02.138Z,17.52
2022-09-02T06:52:02.135Z,17.50
2022-09-02T06:53:02.190Z,17.52
2022-09-02T06:54:02.086Z,17.53
2022-09-02T06:55:02.067Z,17.53
2022-09-02T06:56:02.086Z,17.54
2022-09-02T06:57:02.046Z,17.57
2022-09-02T06:58:02.075Z,17.59
2022-09-02T06:59:02.067Z,17.59
2022-09-02T07:00:02.692Z,17.62
2022-09-02T07:01:02.045Z,17.59
2022-09-02T07:02:02.134Z,17.57
2022-09-02T07:03:01.978Z,17.54
2022-09-02T07:04:01.958Z,17.56
2022-09-02T07:05:01.990Z,17.56
2022-09-02T07:06:01.984Z,17.59
2022-09-02T07:07:01.938Z,17.65
2022-09-02T07:08:01.918Z,17.65
2022-09-02T07:09:01.930Z,17.68
2022-09-02T07:10:01.918Z,17.69
2022-09-02T07:11:01.923Z,17.72
2022-09-02T07:12:04.621Z,17.73
2022-09-02T07:13:01.867Z,17.73
2022-09-02T07:14:01.857Z,17.73
2022-09-02T07:15:01.871Z,17.73
2022-09-02T07:16:01.949Z,17.75
2022-09-02T07:17:01.866Z,17.76
2022-09-02T07:18:01.819Z,17.76
2022-09-02T07:19:01.861Z,17.75
2022-09-02T07:20:01.817Z,17.73
2022-09-02T07:21:01.788Z,17.72
2022-09-02T07:22:01.771Z,17.71
2022-09-02T07:23:01.810Z,17.71
2022-09-02T07:24:01.836Z,17.71
2022-09-02T07:25:01.754Z,17.72
2022-09-02T07:26:01.738Z,17.72
2022-09-02T07:27:01.762Z,17.73
2022-09-02T07:28:01.731Z,17.75
2022-09-02T07:29:01.768Z,17.76
2022-09-02T07:30:01.678Z,17.79
2022-09-02T07:31:01.752Z,17.83
2022-09-02T07:32:01.677Z,17.86
2022-09-02T07:33:01.657Z,17.87
2022-09-02T07:34:01.698Z,17.90
2022-09-02T07:35:01.637Z,17.90
2022-09-02T07:36:01.639Z,17.93
2022-09-02T07:37:05.029Z,17.97
2022-09-02T07:38:02.616Z,18.02
2022-09-02T07:39:01.604Z,18.02
2022-09-02T07:40:01.607Z,18.05
2022-09-02T07:41:01.570Z,18.06
2022-09-02T07:42:01.579Z,18.08
2022-09-02T07:43:01.555Z,18.11
2022-09-02T07:44:01.549Z,18.12
2022-09-02T07:45:01.551Z,18.15
2022-09-02T07:46:03.286Z,18.18
2022-09-02T07:47:01.565Z,18.20
2022-09-02T07:48:01.499Z,18.21
2022-09-02T07:49:01.498Z,18.23
2022-09-02T07:50:19.768Z,18.26
2022-09-02T07:51:02.473Z,18.24
2022-09-02T07:52:01.459Z,18.27
2022-09-02T07:53:01.499Z,18.28
2022-09-02T07:54:01.428Z,18.27
2022-09-02T07:55:01.429Z,18.28
2022-09-02T07:56:01.408Z,18.30
2022-09-02T07:57:01.428Z,18.28
2022-09-02T07:58:01.398Z,18.31
2022-09-02T07:59:01.409Z,18.33
2022-09-02T08:00:01.369Z,18.36
2022-09-02T08:01:01.459Z,18.43
2022-09-02T08:02:01.413Z,18.48
2022-09-02T08:03:01.492Z,18.54
2022-09-02T08:04:04.133Z,18.61
2022-09-02T08:05:01.310Z,18.66
2022-09-02T08:06:01.309Z,18.71
2022-09-02T08:07:01.290Z,18.81
2022-09-02T08:08:01.277Z,18.88
2022-09-02T08:09:01.329Z,18.96
2022-09-02T08:10:01.272Z,19.04
2022-09-02T08:12:01.236Z,19.19
2022-09-02T08:13:01.229Z,19.24
2022-09-02T08:14:01.240Z,19.31
2022-09-02T08:15:01.233Z,19.37
2022-09-02T08:16:01.199Z,19.42
2022-09-02T08:17:01.315Z,19.47
2022-09-02T08:18:01.167Z,19.50
2022-09-02T08:19:01.160Z,19.54
2022-09-02T08:20:01.170Z,19.56
2022-09-02T08:21:01.147Z,19.60
2022-09-02T08:22:01.157Z,19.63
2022-09-02T08:23:11.473Z,19.64
2022-09-02T08:24:02.103Z,19.64
2022-09-02T08:25:01.115Z,19.67
2022-09-02T08:26:01.129Z,19.67
2022-09-02T08:27:01.175Z,19.67
2022-09-02T08:28:01.061Z,19.67
2022-09-02T08:29:01.070Z,19.68
2022-09-02T08:30:01.049Z,19.68
2022-09-02T08:31:01.058Z,19.71
2022-09-02T08:32:01.062Z,19.74
2022-09-02T08:33:01.009Z,19.74
2022-09-02T08:34:01.088Z,19.72
2022-09-02T08:35:00.992Z,19.72
2022-09-02T08:36:01.021Z,19.72
2022-09-02T08:37:00.971Z,19.71
2022-09-02T08:38:01.496Z,19.68
2022-09-02T08:39:00.953Z,19.64
2022-09-02T08:40:00.955Z,19.63
2022-09-02T08:41:00.933Z,19.64
2022-09-02T08:43:00.900Z,19.68
2022-09-02T08:44:00.890Z,19.70
2022-09-02T08:45:00.890Z,19.75
2022-09-02T08:46:00.927Z,19.78
2022-09-02T08:47:00.860Z,19.81
2022-09-02T08:48:00.880Z,19.84
2022-09-02T08:49:00.841Z,19.87
2022-09-02T08:50:00.830Z,19.90
2022-09-02T08:51:00.820Z,19.93
2022-09-02T08:52:01.170Z,19.96
2022-09-02T08:53:00.826Z,19.99
2022-09-02T08:54:00.839Z,20.02
2022-09-02T08:55:00.781Z,20.07
2022-09-02T08:56:00.760Z,20.09
2022-09-02T08:57:00.751Z,20.11
2022-09-02T08:58:00.801Z,20.14
2022-09-02T08:59:00.771Z,20.15
2022-09-02T09:00:00.723Z,20.18
2022-09-02T09:01:00.754Z,20.19
2022-09-02T09:02:01.009Z,20.22
2022-09-02T09:03:00.691Z,20.25
2022-09-02T09:04:00.700Z,20.27
2022-09-02T09:05:00.677Z,20.30
2022-09-02T09:06:00.674Z,20.34
2022-09-02T09:07:00.660Z,20.39
2022-09-02T09:08:00.631Z,20.42
2022-09-02T09:09:00.631Z,20.49
2022-09-02T09:10:00.641Z,20.53
2022-09-02T09:11:00.641Z,20.60
2022-09-02T09:12:00.592Z,20.63
2022-09-02T09:13:00.583Z,20.65
2022-09-02T09:14:00.569Z,20.70
2022-09-02T09:15:00.601Z,20.74
2022-09-02T09:16:00.665Z,20.77
2022-09-02T09:17:00.542Z,20.80
2022-09-02T09:18:00.528Z,20.83
2022-09-02T09:19:00.525Z,20.83
2022-09-02T09:20:00.513Z,20.83
2022-09-02T09:21:00.504Z,20.85
2022-09-02T09:22:00.542Z,20.86
2022-09-02T09:23:00.487Z,20.88
2022-09-02T09:24:00.462Z,20.89
2022-09-02T09:25:00.469Z,20.88
2022-09-02T09:26:00.443Z,20.89
2022-09-02T09:27:00.452Z,20.90
2022-09-02T09:28:00.414Z,20.93
2022-09-02T09:29:00.425Z,20.93
2022-09-02T09:30:00.402Z,20.95
2022-09-02T09:31:00.418Z,20.97
2022-09-02T09:32:00.431Z,21.00
2022-09-02T09:33:00.458Z,21.03
2022-09-02T09:34:00.352Z,21.05
2022-09-02T09:35:00.354Z,21.04
2022-09-02T09:36:00.340Z,21.04
2022-09-02T09:37:00.334Z,21.04
2022-09-02T09:38:00.352Z,21.04
2022-09-02T09:39:00.312Z,21.05
2022-09-02T09:40:00.301Z,21.07
2022-09-02T09:41:00.283Z,21.10
2022-09-02T09:42:00.466Z,21.13
2022-09-02T09:44:00.254Z,21.22
2022-09-02T09:45:00.324Z,21.26
2022-09-02T09:46:00.267Z,21.32
2022-09-02T09:47:00.225Z,21.37
2022-09-02T09:48:00.213Z,21.40
2022-09-02T09:49:00.405Z,21.40
2022-09-02T09:50:00.204Z,21.41
2022-09-02T09:51:00.174Z,21.41
2022-09-02T09:52:00.164Z,21.38
2022-09-02T09:53:00.155Z,21.38
2022-09-02T09:54:00.144Z,21.40
2022-09-02T09:55:00.225Z,21.37
2022-09-02T09:56:00.125Z,21.35
2022-09-02T09:57:00.115Z,21.35
2022-09-02T09:58:00.110Z,21.34
2022-09-02T09:59:00.103Z,21.37
2022-09-02T10:00:00.075Z,21.38
2022-09-02T10:01:00.210Z,21.38
2022-09-02T10:02:00.113Z,21.41
2022-09-02T10:03:00.053Z,21.44
2022-09-02T10:04:00.067Z,21.50
2022-09-02T10:05:00.039Z,21.55
2022-09-02T10:06:00.033Z,21.62
2022-09-02T10:07:00.035Z,21.67
2022-09-02T10:07:59.996Z,21.73
2022-09-02T10:08:59.996Z,21.77
2022-09-02T10:09:59.975Z,21.81
2022-09-02T10:10:59.966Z,21.84
2022-09-02T10:11:59.954Z,21.88
2022-09-02T10:12:59.966Z,21.93
2022-09-02T10:13:59.945Z,21.97
2022-09-02T10:14:59.955Z,22.00
2022-09-02T10:15:59.971Z,22.01
2022-09-02T10:16:59.905Z,22.01
2022-09-02T10:17:59.887Z,22.03
2022-09-02T10:18:59.876Z,22.04
2022-09-02T10:19:59.906Z,22.04
2022-09-02T10:21:16.051Z,22.06
2022-09-02T10:22:00.846Z,22.11
2022-09-02T10:23:00.699Z,22.15
2022-09-02T10:23:59.826Z,22.18
2022-09-02T10:24:59.868Z,22.22
2022-09-02T10:25:59.806Z,22.23
2022-09-02T10:26:59.806Z,22.23
2022-09-02T10:27:59.796Z,22.25
2022-09-02T10:29:03.423Z,22.28
2022-09-02T10:29:59.767Z,22.31
2022-09-02T10:30:59.776Z,22.34
2022-09-02T10:31:59.747Z,22.38
2022-09-02T10:32:59.737Z,22.43
2022-09-02T10:33:59.717Z,22.49
2022-09-02T10:34:59.758Z,22.52
2022-09-02T10:35:59.706Z,22.55
2022-09-02T10:36:59.697Z,22.58
2022-09-02T10:37:59.677Z,22.62
2022-09-02T10:38:59.677Z,22.66
2022-09-02T10:39:59.667Z,22.70
2022-09-02T10:40:59.806Z,22.71
2022-09-02T10:41:59.647Z,22.76
2022-09-02T10:42:59.633Z,22.77
2022-09-02T10:43:59.618Z,22.81
2022-09-02T10:44:59.617Z,22.86
2022-09-02T10:45:59.630Z,22.92
2022-09-02T10:46:59.638Z,22.96
2022-09-02T10:47:59.583Z,23.01
2022-09-02T10:48:59.568Z,23.04
2022-09-02T10:49:59.548Z,23.07
2022-09-02T10:50:59.578Z,23.10
2022-09-02T10:51:59.538Z,23.13
2022-09-02T10:52:59.548Z,23.15
2022-09-02T10:53:59.572Z,23.21
2022-09-02T10:54:59.497Z,23.23
2022-09-02T10:55:59.500Z,23.28
2022-09-02T10:56:59.497Z,23.33
2022-09-02T10:57:59.479Z,23.39
2022-09-02T10:59:59.449Z,23.48
2022-09-02T11:00:59.468Z,23.49
2022-09-02T11:01:59.418Z,23.51
2022-09-02T11:02:59.471Z,23.51
2022-09-02T11:03:59.489Z,23.54
2022-09-02T11:04:59.429Z,23.55
2022-09-02T11:05:59.419Z,23.54
2022-09-02T11:07:03.044Z,23.54
2022-09-02T11:07:59.358Z,23.52
2022-09-02T11:08:59.379Z,23.52
2022-09-02T11:09:59.338Z,23.49
2022-09-02T11:10:59.319Z,23.49
2022-09-02T11:12:00.291Z,23.48
2022-09-02T11:12:59.338Z,23.41
2022-09-02T11:13:59.289Z,23.37
2022-09-02T11:14:59.283Z,23.34
2022-09-02T11:15:59.338Z,23.28
2022-09-02T11:16:59.258Z,23.22
2022-09-02T11:17:59.260Z,23.21
2022-09-02T11:18:59.259Z,23.17
2022-09-02T11:19:59.230Z,23.13
2022-09-02T11:20:59.231Z,23.13
2022-09-02T11:21:59.211Z,23.15
2022-09-02T11:22:59.200Z,23.17
2022-09-02T11:23:59.190Z,23.15
2022-09-02T11:24:59.208Z,23.15
2022-09-02T11:25:59.171Z,23.15
2022-09-02T11:26:59.150Z,23.14
2022-09-02T11:27:59.151Z,23.13
2022-09-02T11:28:59.162Z,23.14
2022-09-02T11:29:59.130Z,23.11
2022-09-02T11:30:59.170Z,23.15
2022-09-02T11:31:59.102Z,23.08
2022-09-02T11:32:59.091Z,23.08
2022-09-02T11:33:59.143Z,23.11
2022-09-02T11:34:59.069Z,23.18
2022-09-02T11:35:59.061Z,23.25
2022-09-02T11:36:59.086Z,23.34
2022-09-02T11:37:59.043Z,23.39
2022-09-02T11:38:59.032Z,23.44
2022-09-02T11:40:11.646Z,23.49
2022-09-02T11:42:00.060Z,23.55
2022-09-02T11:42:58.981Z,23.56
2022-09-02T11:43:58.984Z,23.59
2022-09-02T11:44:58.963Z,23.60
2022-09-02T11:45:59.034Z,23.60
2022-09-02T11:46:59.021Z,23.63
2022-09-02T11:47:58.933Z,23.69
2022-09-02T11:48:58.925Z,23.76
2022-09-02T11:49:58.913Z,23.82
2022-09-02T11:50:58.931Z,23.88
2022-09-02T11:51:59.000Z,23.91
2022-09-02T11:52:58.884Z,23.94
2022-09-02T11:53:58.905Z,23.94
2022-09-02T11:55:02.502Z,23.96
2022-09-02T11:55:58.854Z,23.98
2022-09-02T11:56:58.844Z,24.01
2022-09-02T11:57:58.836Z,24.06
2022-09-02T11:58:58.843Z,24.13
2022-09-02T11:59:58.814Z,24.19
2022-09-02T12:00:58.805Z,24.22
2022-09-02T12:01:58.825Z,24.28
2022-09-02T12:02:58.783Z,24.29
2022-09-02T12:04:48.155Z,24.33
2022-09-02T12:05:01.604Z,24.31
2022-09-02T12:05:58.857Z,24.33
2022-09-02T12:06:58.888Z,24.33
2022-09-02T12:07:58.729Z,24.36
2022-09-02T12:08:58.713Z,24.37
2022-09-02T12:09:58.752Z,24.37
2022-09-02T12:10:58.685Z,24.40
2022-09-02T12:11:58.693Z,24.45
2022-09-02T12:12:58.675Z,24.44
2022-09-02T12:13:59.976Z,24.47
2022-09-02T12:14:58.687Z,24.48
2022-09-02T12:15:58.730Z,24.51
2022-09-02T12:16:58.633Z,24.52
2022-09-02T12:17:58.626Z,24.51
2022-09-02T12:18:58.607Z,24.51
2022-09-02T12:19:58.667Z,24.52
2022-09-02T12:20:58.615Z,24.52
2022-09-02T12:21:58.576Z,24.52
2022-09-02T12:22:58.564Z,24.56
2022-09-02T12:23:58.569Z,24.58
2022-09-02T12:24:58.561Z,24.58
2022-09-02T12:25:58.565Z,24.56
2022-09-02T12:26:58.515Z,24.56
2022-09-02T12:27:58.515Z,24.58
2022-09-02T12:28:58.504Z,24.59
2022-09-02T12:29:58.516Z,24.62
2022-09-02T12:30:58.527Z,24.63
2022-09-02T12:31:58.466Z,24.62
2022-09-02T12:32:58.456Z,24.62
2022-09-02T12:33:58.446Z,24.60
2022-09-02T12:34:58.438Z,24.58
2022-09-02T12:35:58.538Z,24.59
2022-09-02T12:36:58.457Z,24.59
2022-09-02T12:37:58.406Z,24.56
2022-09-02T12:38:58.387Z,24.56
2022-09-02T12:39:58.393Z,24.56
2022-09-02T12:40:58.436Z,24.60
2022-09-02T12:41:58.386Z,24.63
2022-09-02T12:42:58.378Z,24.66
2022-09-02T12:43:58.347Z,24.71
2022-09-02T12:44:58.328Z,24.71
2022-09-02T12:45:58.330Z,24.71
2022-09-02T12:46:58.349Z,24.74
2022-09-02T12:47:58.308Z,24.70
2022-09-02T12:48:58.358Z,24.63
2022-09-02T12:49:58.328Z,24.62
2022-09-02T12:50:58.270Z,24.58
2022-09-02T12:51:58.266Z,24.56
2022-09-02T12:52:58.270Z,24.55
2022-09-02T12:53:58.248Z,24.53
2022-09-02T12:54:58.229Z,24.53
2022-09-02T12:55:58.249Z,24.51
2022-09-02T12:56:58.209Z,24.47